LKTV weather

Tabor Vsechov Ultralight Airport
Tabor, South Bohemian Region, Czech Republic

Public forecast

Using degrees Celsius for public forecast. Weather courtesy of forecast.io.

Closest aviation weather report (METAR) to Tabor Vsechov Ultralight Airport

Closest report is Kbely Air Base, 41.2 nm (76.2 km) N. Retrieved 2019/12/07 03:00 UTC (38 minutes ago):

LKKB 070300Z 22013KT 9999 -RA FEW027 BKN033 OVC050 05/03 Q1009

Closest aviation forecast (TAF) to Tabor Vsechov Ultralight Airport

Closest forecast is Kbely Air Base, 41.2 nm (76.2 km) N. Retrieved 2019-12-07 00:00 UTC (4 hours ago):

TAF LKKB 062300Z 0700/0800 18013KT CAVOK BECMG 0700/0702 18015KT BKN020 TEMPO 0701/0710 21020G32KT 7000 RA BKN010 BECMG 0709/0711 BKN024 TEMPO 0712/0718 23015G25KT 8000 SHRA BKN017